Vyacheslav Trifonov

Chefscout - Krylya Sovetov
11 Jul 2027
Sonntag
Verarbeitung

Persönlichkeit

Anpassungsfähigkeit (14) Ehrgeiz (2) Kontroverse (10) Loyalität (13) Druck (5) Professionalität (13) Fairness (8) Temperament (20)

Profil

Trainerstil Demokratisch
Lizenz Kontinentale Pro
Entschlossenheit 8
Menschenführung 10
Motivation 7
Disziplin 8
Arbeitszufriedenheit
56%
Ermüdung
0%
Rolle Chefscout
Gehalt 33.1K p/W
Vertrag 14.03.2030

Leistung

Verhalten Gut
Trainingseffektivität
26%
Spielerentwicklung
35%
Verletzungsprävention
25%
Taktische Umsetzung
60%

Letzte Ereignisse

Spieler begutachtet jetzt
Nahm an einer Scouting-Besprechung teil jetzt
Nahm an einer Scouting-Besprechung teil jetzt
Nahm an einer Scouting-Besprechung teil jetzt
Spieler begutachtet jetzt
Nahm an einer Scouting-Besprechung teil 7T her
Spieler begutachtet 7T her
Spieler begutachtet 7T her

Aktuell beobachtet

54
Spieler Verein Status Fähigkeit Vertrauen Beobachtet Zuletzt beobachtet Letzte Stimme
Salvador Blopá Sporting CP Aktiv 120 / 135 40% 5 08.07.2027 -
Jayden Spier Willem II Aktiv 120 / 103 40% 1 08.07.2027 -
Milton Oni Colchester United Aktiv 100 / 103 40% 1 07.07.2027 -
Daniel Banjaqui Benfica Aktiv 118 / 126 40% 2 06.07.2027 -
Ismaël Baouf Cambuur Aktiv 107 / 117 40% 2 06.07.2027 -
Joe Knight Stevenage Aktiv 91 / 122 40% 3 05.07.2027 -
Lucas Jetten Cambuur Aktiv 107 / 126 40% 1 05.07.2027 -
Amine Boukamir Westerlo Aktiv 89 / 111 40% 4 03.07.2027 -
Guy Noël Zohouri Le Havre AC Aktiv 108 / 110 40% 2 02.07.2027 -
Sergey Chernov Zenit Aktiv 91 / 90 40% 2 28.06.2027 -
Callum Tripp Milton Keynes Dons Aktiv 95 / 85 40% 1 28.06.2027 -
Evgeniy Novykh Vitebsk Aktiv 93 / 84 40% 1 27.06.2027 -
Lucan Louw US Bougouni Aktiv 93 / 96 40% 1 27.06.2027 -
Mattia Mannini Juve Stabia Aktiv 98 / 116 40% 1 26.06.2027 -
Demjan Iljev SKA Khabarovsk Aktiv 70 / 82 40% 1 26.06.2027 -
Augusto Bando Ascoli Aktiv 94 / 112 40% 1 25.06.2027 -
Tobias Brenan Wigan Athletic Aktiv 96 / 89 40% 1 25.06.2027 -
Maxim Radchenko Rostov Aktiv 75 / 85 40% 2 24.06.2027 -
Pedro Manoel Tammeka Aktiv 80 / 99 40% 1 24.06.2027 -
Jonathan Bland Barnsley Aktiv 118 / 102 40% 1 23.06.2027 -
Izan Merino Málaga Aktiv 138 / 139 40% 6 21.06.2027 -
Alin Kumer Čelik Genoa Aktiv 86 / 100 40% 1 21.06.2027 -
Moncef Zekri Sporting CP Aktiv 87 / 120 40% 1 18.06.2027 -
Timofey Schelkunov Baltika Aktiv 75 / 94 40% 1 15.06.2027 -
Kazunari Kita Real Sociedad Aktiv 101 / 100 40% 2 14.06.2027 -
Gift Isioma Warri Wolves Aktiv 86 / 81 40% 1 14.06.2027 -
Julián Bazán New York Red Bulls Aktiv 104 / 132 40% 1 23.02.2027 -
Mathis Amougou RC Strasbourg Aktiv 111 / 122 40% 1 23.02.2027 -
Miguel Figueiredo Benfica Abgelehnt 110 / 107 40% 2 22.02.2027 Mehr Infos nötig
Ezra Mayers West Ham United Aktiv 118 / 128 40% 1 18.02.2027 -
Jens Mathijsen Willem II Aktiv 96 / 125 40% 1 18.02.2027 -
Cheveyo Tsawa Club Brugge Aktiv 122 / 136 40% 1 17.02.2027 -
Jakub Adkonis Lechia Aktiv 99 / 99 40% 1 16.02.2027 -
Rabby Nzingoula West Bromwich Albion Aktiv 123 / 125 40% 1 16.02.2027 -
Jack Shorrock Port Vale Aktiv 105 / 95 40% 3 15.02.2027 -
Roger Hinojo Espanyol Aktiv 113 / 129 40% 1 14.02.2027 -
Louis Page West Ham United Aktiv 104 / 135 40% 1 11.02.2027 -
Simeon Vasilev Arda Aktiv 103 / 105 40% 1 07.02.2027 -
Savely Nikiforov Zenit Aktiv 83 / 92 40% 1 01.02.2027 -
Hervé Berger Tours Aktiv 81 / 107 40% 1 29.01.2027 -
Isaí Valladares Zamora Aktiv 106 / 109 40% 1 31.08.2026 -
Zakhar Baranok Torpedo-BelAZ Aktiv 85 / 93 40% 1 31.08.2026 -
Yan Shumskiy BATE Aktiv 80 / 81 40% 2 27.08.2026 -
Adam Aznou Everton Aktiv 137 / 139 40% 1 27.08.2026 -
Matvey Kislyak CSKA Moscow Aktiv 142 / 141 40% 1 23.08.2026 -
Alexandr Yerokhin Zenit Aktiv 116 / 103 51% 1 17.08.2026 Beobachten
Tom Atcheson Brentford Aktiv 113 / 123 40% 1 17.08.2026 -
Anton Lukashov Slavia Mozyr Aktiv 103 / 105 40% 2 16.08.2026 -
Makar Kuznetsov Zugdidi Aktiv 82 / 71 40% 1 12.08.2026 -
Egor Yudenko Gomel Aktiv 71 / 76 40% 1 11.08.2026 -
Maxim Autko Neman Aktiv 87 / 94 40% 1 11.08.2026 -
Ivans Patrikejevs Liepaja Aktiv 70 / 90 40% 1 05.08.2026 -
Alexey Dunaev Dnepr Mogilev Aktiv 77 / 80 40% 1 05.08.2026 -
Nahuel Arias San Lorenzo Aktiv 103 / 121 40% 1 02.08.2026 -